sensor_id;sensor_type;location;lat;lon;timestamp;pressure;altitude;pressure_sealevel;temperature;humidity
61900;BME280;47853;55.890;37.664;2023-08-31T00:01:46;99259.84;;;18.44;100.00
61900;BME280;47853;55.890;37.664;2023-08-31T00:04:12;99274.50;;;17.97;100.00
61900;BME280;47853;55.890;37.664;2023-08-31T00:06:37;99269.03;;;18.11;100.00
61900;BME280;47853;55.890;37.664;2023-08-31T00:09:03;99281.09;;;18.27;100.00
61900;BME280;47853;55.890;37.664;2023-08-31T00:11:28;99275.75;;;18.02;100.00
61900;BME280;47853;55.890;37.664;2023-08-31T00:13:53;99265.72;;;18.34;100.00
61900;BME280;47853;55.890;37.664;2023-08-31T00:16:23;99278.81;;;18.68;100.00
61900;BME280;47853;55.890;37.664;2023-08-31T00:18:49;99283.25;;;18.81;100.00
61900;BME280;47853;55.890;37.664;2023-08-31T00:21:14;99275.69;;;19.27;100.00
61900;BME280;47853;55.890;37.664;2023-08-31T00:23:40;99275.69;;;18.90;100.00
61900;BME280;47853;55.890;37.664;2023-08-31T00:26:05;99278.38;;;19.08;100.00
61900;BME280;47853;55.890;37.664;2023-08-31T00:28:30;99281.91;;;19.09;100.00
61900;BME280;47853;55.890;37.664;2023-08-31T00:30:56;99278.66;;;19.37;100.00
61900;BME280;47853;55.890;37.664;2023-08-31T00:33:21;99274.16;;;19.01;100.00
61900;BME280;47853;55.890;37.664;2023-08-31T00:35:46;99277.94;;;19.11;100.00
61900;BME280;47853;55.890;37.664;2023-08-31T00:38:12;99280.94;;;19.03;100.00
61900;BME280;47853;55.890;37.664;2023-08-31T00:40:41;99276.03;;;19.31;100.00
61900;BME280;47853;55.890;37.664;2023-08-31T00:43:07;99277.22;;;19.35;100.00
61900;BME280;47853;55.890;37.664;2023-08-31T00:45:32;99279.94;;;19.77;100.00
61900;BME280;47853;55.890;37.664;2023-08-31T00:47:58;99283.84;;;19.93;100.00
61900;BME280;47853;55.890;37.664;2023-08-31T00:50:24;99286.91;;;20.09;100.00
61900;BME280;47853;55.890;37.664;2023-08-31T00:52:49;99288.34;;;19.69;100.00
61900;BME280;47853;55.890;37.664;2023-08-31T00:55:15;99291.06;;;19.81;100.00
61900;BME280;47853;55.890;37.664;2023-08-31T00:57:40;99295.88;;;19.79;100.00
61900;BME280;47853;55.890;37.664;2023-08-31T01:00:06;99299.88;;;19.88;100.00
61900;BME280;47853;55.890;37.664;2023-08-31T01:02:43;99295.09;;;19.90;100.00
61900;BME280;47853;55.890;37.664;2023-08-31T01:05:33;99291.97;;;20.41;100.00
61900;BME280;47853;55.890;37.664;2023-08-31T01:08:14;99298.16;;;19.94;100.00
61900;BME280;47853;55.890;37.664;2023-08-31T01:13:30;99291.38;;;20.39;100.00
61900;BME280;47853;55.890;37.664;2023-08-31T01:15:59;99272.75;;;20.37;100.00
61900;BME280;47853;55.890;37.664;2023-08-31T01:18:26;99288.69;;;20.27;100.00
61900;BME280;47853;55.890;37.664;2023-08-31T01:23:54;99278.13;;;20.02;100.00
61900;BME280;47853;55.890;37.664;2023-08-31T01:26:24;99268.28;;;19.95;100.00
61900;BME280;47853;55.890;37.664;2023-08-31T01:28:51;99277.56;;;20.11;100.00
61900;BME280;47853;55.890;37.664;2023-08-31T01:31:17;99280.16;;;19.76;100.00
61900;BME280;47853;55.890;37.664;2023-08-31T01:33:42;99276.28;;;19.29;100.00
61900;BME280;47853;55.890;37.664;2023-08-31T01:36:20;99280.09;;;19.52;100.00
61900;BME280;47853;55.890;37.664;2023-08-31T01:38:51;99284.44;;;19.53;100.00
61900;BME280;47853;55.890;37.664;2023-08-31T01:41:19;99273.00;;;19.39;100.00
61900;BME280;47853;55.890;37.664;2023-08-31T01:43:46;99279.38;;;19.87;100.00
61900;BME280;47853;55.890;37.664;2023-08-31T01:46:13;99284.75;;;19.87;100.00
61900;BME280;47853;55.890;37.664;2023-08-31T01:48:40;99264.53;;;19.96;100.00
61900;BME280;47853;55.890;37.664;2023-08-31T01:51:07;99271.94;;;19.59;100.00
61900;BME280;47853;55.890;37.664;2023-08-31T01:53:32;99274.31;;;19.36;100.00
61900;BME280;47853;55.890;37.664;2023-08-31T01:55:58;99268.50;;;19.51;100.00
61900;BME280;47853;55.890;37.664;2023-08-31T01:58:23;99287.34;;;19.21;100.00
61900;BME280;47853;55.890;37.664;2023-08-31T02:00:48;99285.94;;;19.49;100.00
61900;BME280;47853;55.890;37.664;2023-08-31T02:03:14;99289.47;;;19.49;100.00
61900;BME280;47853;55.890;37.664;2023-08-31T02:05:42;99293.09;;;19.24;100.00
61900;BME280;47853;55.890;37.664;2023-08-31T02:08:07;99285.84;;;18.69;100.00
61900;BME280;47853;55.890;37.664;2023-08-31T02:10:32;99268.63;;;18.33;100.00
61900;BME280;47853;55.890;37.664;2023-08-31T02:12:59;99268.81;;;18.38;100.00
61900;BME280;47853;55.890;37.664;2023-08-31T02:15:27;99252.53;;;18.89;100.00
61900;BME280;47853;55.890;37.664;2023-08-31T02:17:53;99278.16;;;18.73;100.00
61900;BME280;47853;55.890;37.664;2023-08-31T02:20:18;99269.88;;;18.55;100.00
61900;BME280;47853;55.890;37.664;2023-08-31T02:22:44;99264.66;;;18.17;100.00
61900;BME280;47853;55.890;37.664;2023-08-31T02:25:09;99266.81;;;17.76;100.00
61900;BME280;47853;55.890;37.664;2023-08-31T02:27:34;99276.16;;;17.66;100.00
61900;BME280;47853;55.890;37.664;2023-08-31T02:30:00;99277.66;;;17.23;100.00
61900;BME280;47853;55.890;37.664;2023-08-31T02:32:25;99262.53;;;17.68;100.00
61900;BME280;47853;55.890;37.664;2023-08-31T02:34:51;99281.44;;;17.80;100.00
61900;BME280;47853;55.890;37.664;2023-08-31T02:37:16;99268.16;;;18.17;100.00
61900;BME280;47853;55.890;37.664;2023-08-31T02:39:41;99288.38;;;18.45;100.00
61900;BME280;47853;55.890;37.664;2023-08-31T02:42:07;99281.66;;;18.73;100.00
61900;BME280;47853;55.890;37.664;2023-08-31T02:44:32;99288.91;;;18.10;100.00
61900;BME280;47853;55.890;37.664;2023-08-31T02:46:57;99282.53;;;18.04;100.00
61900;BME280;47853;55.890;37.664;2023-08-31T02:49:23;99285.56;;;17.82;100.00
61900;BME280;47853;55.890;37.664;2023-08-31T02:51:48;99276.19;;;17.92;100.00
61900;BME280;47853;55.890;37.664;2023-08-31T02:54:13;99274.53;;;18.23;100.00
61900;BME280;47853;55.890;37.664;2023-08-31T02:56:39;99266.16;;;18.13;100.00
61900;BME280;47853;55.890;37.664;2023-08-31T02:59:04;99271.28;;;18.14;100.00
61900;BME280;47853;55.890;37.664;2023-08-31T03:01:29;99270.69;;;18.56;100.00
61900;BME280;47853;55.890;37.664;2023-08-31T03:03:55;99274.41;;;18.36;100.00
61900;BME280;47853;55.890;37.664;2023-08-31T03:06:20;99269.13;;;18.86;100.00
61900;BME280;47853;55.890;37.664;2023-08-31T03:08:45;99275.25;;;19.11;100.00
61900;BME280;47853;55.890;37.664;2023-08-31T03:11:14;99270.59;;;18.63;100.00
61900;BME280;47853;55.890;37.664;2023-08-31T03:13:39;99260.59;;;19.07;100.00
61900;BME280;47853;55.890;37.664;2023-08-31T03:16:04;99258.44;;;18.97;100.00
61900;BME280;47853;55.890;37.664;2023-08-31T03:18:32;99259.97;;;18.31;100.00
61900;BME280;47853;55.890;37.664;2023-08-31T03:20:58;99262.34;;;19.02;100.00
61900;BME280;47853;55.890;37.664;2023-08-31T03:23:23;99258.03;;;19.31;100.00
61900;BME280;47853;55.890;37.664;2023-08-31T03:25:49;99255.50;;;19.18;100.00
61900;BME280;47853;55.890;37.664;2023-08-31T03:28:14;99256.41;;;19.11;100.00
61900;BME280;47853;55.890;37.664;2023-08-31T03:30:39;99261.97;;;18.98;100.00
61900;BME280;47853;55.890;37.664;2023-08-31T03:33:05;99269.97;;;19.05;100.00
61900;BME280;47853;55.890;37.664;2023-08-31T03:35:32;99266.69;;;19.33;100.00
61900;BME280;47853;55.890;37.664;2023-08-31T03:37:57;99272.28;;;19.32;100.00
61900;BME280;47853;55.890;37.664;2023-08-31T03:40:23;99275.50;;;19.40;100.00
61900;BME280;47853;55.890;37.664;2023-08-31T03:42:49;99268.06;;;19.54;100.00
61900;BME280;47853;55.890;37.664;2023-08-31T03:45:15;99271.47;;;20.04;100.00
61900;BME280;47853;55.890;37.664;2023-08-31T03:47:40;99282.19;;;19.19;100.00
61900;BME280;47853;55.890;37.664;2023-08-31T03:50:06;99292.16;;;19.00;100.00
61900;BME280;47853;55.890;37.664;2023-08-31T03:52:31;99292.53;;;19.65;100.00
61900;BME280;47853;55.890;37.664;2023-08-31T03:54:56;99295.16;;;19.41;100.00
61900;BME280;47853;55.890;37.664;2023-08-31T03:57:22;99285.91;;;19.67;100.00
61900;BME280;47853;55.890;37.664;2023-08-31T03:59:47;99270.31;;;19.27;100.00
61900;BME280;47853;55.890;37.664;2023-08-31T04:02:13;99281.28;;;19.25;100.00
61900;BME280;47853;55.890;37.664;2023-08-31T04:04:38;99280.03;;;19.70;100.00
61900;BME280;47853;55.890;37.664;2023-08-31T04:07:05;99284.09;;;20.04;100.00
61900;BME280;47853;55.890;37.664;2023-08-31T04:09:30;99289.41;;;20.22;100.00
61900;BME280;47853;55.890;37.664;2023-08-31T04:11:55;99290.78;;;20.25;100.00
61900;BME280;47853;55.890;37.664;2023-08-31T04:14:21;99285.91;;;19.79;100.00
61900;BME280;47853;55.890;37.664;2023-08-31T04:16:46;99283.41;;;19.66;100.00
61900;BME280;47853;55.890;37.664;2023-08-31T04:19:11;99283.66;;;20.19;100.00
61900;BME280;47853;55.890;37.664;2023-08-31T04:21:37;99285.84;;;19.55;100.00
61900;BME280;47853;55.890;37.664;2023-08-31T04:24:02;99298.16;;;20.06;100.00
61900;BME280;47853;55.890;37.664;2023-08-31T04:26:30;99294.91;;;20.51;100.00
61900;BME280;47853;55.890;37.664;2023-08-31T04:28:55;99297.38;;;20.53;100.00
61900;BME280;47853;55.890;37.664;2023-08-31T04:31:21;99300.28;;;20.51;100.00
61900;BME280;47853;55.890;37.664;2023-08-31T04:33:46;99300.44;;;20.56;100.00
61900;BME280;47853;55.890;37.664;2023-08-31T04:36:11;99310.59;;;20.78;100.00
61900;BME280;47853;55.890;37.664;2023-08-31T04:38:37;99309.47;;;21.15;100.00
61900;BME280;47853;55.890;37.664;2023-08-31T04:41:03;99301.56;;;20.25;100.00
61900;BME280;47853;55.890;37.664;2023-08-31T04:43:28;99302.88;;;20.46;100.00
61900;BME280;47853;55.890;37.664;2023-08-31T04:45:54;99295.84;;;20.81;100.00
61900;BME280;47853;55.890;37.664;2023-08-31T04:48:20;99303.94;;;20.69;100.00
61900;BME280;47853;55.890;37.664;2023-08-31T04:50:45;99304.63;;;20.64;100.00
61900;BME280;47853;55.890;37.664;2023-08-31T04:53:11;99308.88;;;20.84;100.00
61900;BME280;47853;55.890;37.664;2023-08-31T04:55:36;99299.53;;;21.44;100.00
61900;BME280;47853;55.890;37.664;2023-08-31T04:58:01;99306.66;;;21.51;100.00
61900;BME280;47853;55.890;37.664;2023-08-31T05:00:29;99303.06;;;21.74;100.00
61900;BME280;47853;55.890;37.664;2023-08-31T05:02:55;99309.63;;;22.12;100.00
61900;BME280;47853;55.890;37.664;2023-08-31T05:05:21;99304.50;;;22.67;94.96
61900;BME280;47853;55.890;37.664;2023-08-31T05:07:46;99306.63;;;23.05;91.62
61900;BME280;47853;55.890;37.664;2023-08-31T05:10:11;99305.31;;;22.11;96.41
61900;BME280;47853;55.890;37.664;2023-08-31T05:12:37;99296.78;;;22.20;99.52
61900;BME280;47853;55.890;37.664;2023-08-31T05:15:03;99292.63;;;23.13;91.76
61900;BME280;47853;55.890;37.664;2023-08-31T05:17:28;99303.59;;;23.01;90.41
61900;BME280;47853;55.890;37.664;2023-08-31T05:19:53;99297.84;;;23.69;86.59
61900;BME280;47853;55.890;37.664;2023-08-31T05:22:19;99289.25;;;23.78;86.56
61900;BME280;47853;55.890;37.664;2023-08-31T05:24:44;99299.63;;;23.86;83.70
61900;BME280;47853;55.890;37.664;2023-08-31T05:27:09;99301.06;;;24.31;79.23
61900;BME280;47853;55.890;37.664;2023-08-31T05:29:35;99293.09;;;24.14;81.53
61900;BME280;47853;55.890;37.664;2023-08-31T05:32:00;99292.50;;;24.50;79.26
61900;BME280;47853;55.890;37.664;2023-08-31T05:34:28;99304.34;;;23.68;84.23
61900;BME280;47853;55.890;37.664;2023-08-31T05:36:54;99298.28;;;24.64;78.99
61900;BME280;47853;55.890;37.664;2023-08-31T05:39:19;99294.97;;;25.00;75.50
61900;BME280;47853;55.890;37.664;2023-08-31T05:41:44;99308.19;;;25.65;72.01
61900;BME280;47853;55.890;37.664;2023-08-31T05:44:10;99304.13;;;26.14;67.24
61900;BME280;47853;55.890;37.664;2023-08-31T05:46:36;99310.56;;;26.86;62.76
61900;BME280;47853;55.890;37.664;2023-08-31T05:49:01;99322.47;;;27.11;61.50
61900;BME280;47853;55.890;37.664;2023-08-31T05:51:26;99332.88;;;27.54;59.86
61900;BME280;47853;55.890;37.664;2023-08-31T05:53:52;99329.13;;;27.39;60.13
61900;BME280;47853;55.890;37.664;2023-08-31T05:56:19;99324.09;;;27.62;58.47
61900;BME280;47853;55.890;37.664;2023-08-31T05:58:45;99325.84;;;28.76;53.75
61900;BME280;47853;55.890;37.664;2023-08-31T06:01:10;99321.75;;;29.46;51.71
61900;BME280;47853;55.890;37.664;2023-08-31T06:03:35;99327.72;;;29.67;48.50
61900;BME280;47853;55.890;37.664;2023-08-31T06:06:01;99332.19;;;30.91;43.95
61900;BME280;47853;55.890;37.664;2023-08-31T06:08:27;99332.06;;;30.07;44.46
61900;BME280;47853;55.890;37.664;2023-08-31T06:10:52;99331.69;;;30.75;43.87
61900;BME280;47853;55.890;37.664;2023-08-31T06:13:17;99332.69;;;29.85;46.69
61900;BME280;47853;55.890;37.664;2023-08-31T06:15:45;99331.97;;;31.29;42.15
61900;BME280;47853;55.890;37.664;2023-08-31T06:18:10;99334.59;;;31.34;42.38
61900;BME280;47853;55.890;37.664;2023-08-31T06:20:36;99345.38;;;31.31;41.12
61900;BME280;47853;55.890;37.664;2023-08-31T06:23:02;99347.91;;;31.27;40.76
61900;BME280;47853;55.890;37.664;2023-08-31T06:25:27;99352.13;;;29.83;45.63
61900;BME280;47853;55.890;37.664;2023-08-31T06:27:55;99353.06;;;29.73;45.03
61900;BME280;47853;55.890;37.664;2023-08-31T06:30:21;99355.44;;;28.69;49.66
61900;BME280;47853;55.890;37.664;2023-08-31T06:32:47;99351.50;;;29.04;48.48
61900;BME280;47853;55.890;37.664;2023-08-31T06:35:14;99345.19;;;30.71;44.35
61900;BME280;47853;55.890;37.664;2023-08-31T06:37:39;99360.00;;;29.27;47.11
61900;BME280;47853;55.890;37.664;2023-08-31T06:40:06;99358.16;;;30.18;45.23
61900;BME280;47853;55.890;37.664;2023-08-31T06:42:31;99353.34;;;31.55;41.33
61900;BME280;47853;55.890;37.664;2023-08-31T06:44:57;99355.22;;;30.62;42.00
61900;BME280;47853;55.890;37.664;2023-08-31T06:47:22;99360.47;;;29.92;44.63
61900;BME280;47853;55.890;37.664;2023-08-31T06:49:48;99350.44;;;28.51;49.49
61900;BME280;47853;55.890;37.664;2023-08-31T06:52:13;99361.03;;;27.89;52.29
61900;BME280;47853;55.890;37.664;2023-08-31T06:54:41;99366.47;;;26.31;60.41
61900;BME280;47853;55.890;37.664;2023-08-31T06:57:07;99366.69;;;25.94;64.64
61900;BME280;47853;55.890;37.664;2023-08-31T06:59:32;99351.22;;;26.35;62.96
61900;BME280;47853;55.890;37.664;2023-08-31T07:01:58;99349.63;;;27.26;58.60
61900;BME280;47853;55.890;37.664;2023-08-31T07:04:23;99357.59;;;27.07;56.78
61900;BME280;47853;55.890;37.664;2023-08-31T07:06:48;99354.41;;;26.89;58.84
61900;BME280;47853;55.890;37.664;2023-08-31T07:09:14;99358.75;;;24.97;70.57
61900;BME280;47853;55.890;37.664;2023-08-31T07:11:39;99357.72;;;25.93;66.41
61900;BME280;47853;55.890;37.664;2023-08-31T07:14:05;99352.47;;;25.50;69.58
61900;BME280;47853;55.890;37.664;2023-08-31T07:16:30;99384.50;;;24.46;74.04
61900;BME280;47853;55.890;37.664;2023-08-31T07:18:55;99378.00;;;23.87;78.86
61900;BME280;47853;55.890;37.664;2023-08-31T07:21:21;99377.28;;;24.62;76.32
61900;BME280;47853;55.890;37.664;2023-08-31T07:23:46;99345.84;;;23.74;83.83
61900;BME280;47853;55.890;37.664;2023-08-31T07:26:11;99349.22;;;24.89;76.89
61900;BME280;47853;55.890;37.664;2023-08-31T07:28:36;99366.84;;;24.49;78.32
61900;BME280;47853;55.890;37.664;2023-08-31T07:31:03;99368.91;;;24.31;78.00
61900;BME280;47853;55.890;37.664;2023-08-31T07:33:30;99351.25;;;24.67;76.27
61900;BME280;47853;55.890;37.664;2023-08-31T07:36:05;99358.25;;;25.05;74.23
61900;BME280;47853;55.890;37.664;2023-08-31T07:38:31;99360.81;;;25.38;71.66
61900;BME280;47853;55.890;37.664;2023-08-31T07:40:56;99354.66;;;24.52;77.00
61900;BME280;47853;55.890;37.664;2023-08-31T07:43:22;99347.56;;;24.88;76.67
61900;BME280;47853;55.890;37.664;2023-08-31T07:45:48;99338.34;;;24.46;78.22
61900;BME280;47853;55.890;37.664;2023-08-31T07:48:14;99349.13;;;24.74;76.60
61900;BME280;47853;55.890;37.664;2023-08-31T07:50:41;99333.78;;;25.95;69.25
61900;BME280;47853;55.890;37.664;2023-08-31T07:53:11;99342.78;;;26.53;67.05
61900;BME280;47853;55.890;37.664;2023-08-31T07:55:36;99355.19;;;27.00;62.61
61900;BME280;47853;55.890;37.664;2023-08-31T07:58:02;99356.66;;;26.41;61.12
61900;BME280;47853;55.890;37.664;2023-08-31T08:00:27;99357.03;;;27.20;58.00
61900;BME280;47853;55.890;37.664;2023-08-31T08:02:52;99353.38;;;27.91;55.66
61900;BME280;47853;55.890;37.664;2023-08-31T08:05:18;99349.25;;;28.87;50.85
61900;BME280;47853;55.890;37.664;2023-08-31T08:07:43;99356.94;;;27.91;55.43
61900;BME280;47853;55.890;37.664;2023-08-31T08:10:09;99352.31;;;28.56;52.66
61900;BME280;47853;55.890;37.664;2023-08-31T08:12:39;99343.75;;;28.33;54.42
61900;BME280;47853;55.890;37.664;2023-08-31T08:15:05;99345.47;;;26.63;59.81
61900;BME280;47853;55.890;37.664;2023-08-31T08:17:34;99339.19;;;28.29;53.66
61900;BME280;47853;55.890;37.664;2023-08-31T08:19:59;99341.28;;;27.02;59.20
61900;BME280;47853;55.890;37.664;2023-08-31T08:22:25;99335.25;;;27.10;58.53
61900;BME280;47853;55.890;37.664;2023-08-31T08:24:50;99340.03;;;27.39;57.61
61900;BME280;47853;55.890;37.664;2023-08-31T08:27:15;99337.66;;;27.77;54.09
61900;BME280;47853;55.890;37.664;2023-08-31T08:29:41;99350.09;;;26.52;56.95
61900;BME280;47853;55.890;37.664;2023-08-31T08:32:06;99349.25;;;26.72;58.86
61900;BME280;47853;55.890;37.664;2023-08-31T08:34:31;99327.81;;;27.26;56.46
61900;BME280;47853;55.890;37.664;2023-08-31T08:36:57;99320.00;;;27.09;54.66
61900;BME280;47853;55.890;37.664;2023-08-31T08:39:22;99331.44;;;27.11;56.67
61900;BME280;47853;55.890;37.664;2023-08-31T08:41:47;99332.97;;;26.00;60.70
61900;BME280;47853;55.890;37.664;2023-08-31T08:44:14;99334.03;;;25.94;60.83
61900;BME280;47853;55.890;37.664;2023-08-31T08:46:42;99315.56;;;26.27;59.27
61900;BME280;47853;55.890;37.664;2023-08-31T08:49:08;99322.41;;;27.71;54.69
61900;BME280;47853;55.890;37.664;2023-08-31T08:51:34;99312.53;;;27.30;55.07
61900;BME280;47853;55.890;37.664;2023-08-31T08:53:59;99328.31;;;26.62;57.32
61900;BME280;47853;55.890;37.664;2023-08-31T08:56:25;99321.47;;;27.41;55.48
61900;BME280;47853;55.890;37.664;2023-08-31T08:58:50;99326.69;;;27.83;53.15
61900;BME280;47853;55.890;37.664;2023-08-31T09:01:16;99324.19;;;28.26;51.18
61900;BME280;47853;55.890;37.664;2023-08-31T09:03:44;99322.41;;;28.06;51.85
61900;BME280;47853;55.890;37.664;2023-08-31T09:06:09;99339.53;;;27.77;49.26
61900;BME280;47853;55.890;37.664;2023-08-31T09:08:35;99339.16;;;28.58;47.15
61900;BME280;47853;55.890;37.664;2023-08-31T09:11:00;99337.56;;;27.88;49.39
61900;BME280;47853;55.890;37.664;2023-08-31T09:13:27;99338.69;;;27.31;51.30
61900;BME280;47853;55.890;37.664;2023-08-31T09:15:53;99355.03;;;26.24;54.33
61900;BME280;47853;55.890;37.664;2023-08-31T09:18:29;99353.50;;;27.15;52.42
61900;BME280;47853;55.890;37.664;2023-08-31T09:20:56;99356.34;;;27.44;49.39
61900;BME280;47853;55.890;37.664;2023-08-31T09:23:22;99352.19;;;28.02;49.83
61900;BME280;47853;55.890;37.664;2023-08-31T09:25:49;99341.97;;;28.18;48.82
61900;BME280;47853;55.890;37.664;2023-08-31T09:28:16;99355.56;;;30.41;42.69
61900;BME280;47853;55.890;37.664;2023-08-31T09:30:42;99352.66;;;28.74;45.40
61900;BME280;47853;55.890;37.664;2023-08-31T09:33:09;99351.81;;;28.49;46.45
61900;BME280;47853;55.890;37.664;2023-08-31T09:35:58;99362.47;;;29.23;43.76
61900;BME280;47853;55.890;37.664;2023-08-31T09:38:24;99337.59;;;29.83;42.62
61900;BME280;47853;55.890;37.664;2023-08-31T09:40:50;99340.00;;;28.83;44.82
61900;BME280;47853;55.890;37.664;2023-08-31T09:43:25;99336.63;;;29.35;45.05
61900;BME280;47853;55.890;37.664;2023-08-31T09:45:50;99341.50;;;29.43;44.22
61900;BME280;47853;55.890;37.664;2023-08-31T09:48:17;99354.88;;;28.42;46.07
61900;BME280;47853;55.890;37.664;2023-08-31T09:50:44;99348.91;;;28.94;44.25
61900;BME280;47853;55.890;37.664;2023-08-31T09:53:10;99362.22;;;29.25;44.13
61900;BME280;47853;55.890;37.664;2023-08-31T09:55:39;99347.59;;;29.54;43.22
61900;BME280;47853;55.890;37.664;2023-08-31T09:58:05;99353.59;;;29.56;42.46
61900;BME280;47853;55.890;37.664;2023-08-31T10:00:32;99341.94;;;29.50;44.63
61900;BME280;47853;55.890;37.664;2023-08-31T10:03:03;99329.78;;;30.42;41.44
61900;BME280;47853;55.890;37.664;2023-08-31T10:05:29;99351.72;;;29.32;43.61
61900;BME280;47853;55.890;37.664;2023-08-31T10:07:55;99338.00;;;29.76;42.59
61900;BME280;47853;55.890;37.664;2023-08-31T10:10:21;99348.97;;;30.42;39.97
61900;BME280;47853;55.890;37.664;2023-08-31T10:12:50;99339.88;;;29.37;41.88
61900;BME280;47853;55.890;37.664;2023-08-31T10:15:16;99333.84;;;29.59;42.76
61900;BME280;47853;55.890;37.664;2023-08-31T10:17:42;99333.09;;;28.91;44.51
61900;BME280;47853;55.890;37.664;2023-08-31T10:20:09;99336.22;;;29.66;42.47
61900;BME280;47853;55.890;37.664;2023-08-31T10:22:36;99321.16;;;30.35;39.77
61900;BME280;47853;55.890;37.664;2023-08-31T10:25:03;99330.66;;;29.71;40.83
61900;BME280;47853;55.890;37.664;2023-08-31T10:27:58;99331.56;;;29.86;41.70
61900;BME280;47853;55.890;37.664;2023-08-31T10:30:26;99326.41;;;30.92;38.22
61900;BME280;47853;55.890;37.664;2023-08-31T10:35:49;99317.50;;;30.73;38.28
61900;BME280;47853;55.890;37.664;2023-08-31T10:38:16;99338.34;;;30.07;39.53
61900;BME280;47853;55.890;37.664;2023-08-31T10:40:42;99342.19;;;30.06;40.71
61900;BME280;47853;55.890;37.664;2023-08-31T10:43:16;99325.09;;;30.62;39.11
61900;BME280;47853;55.890;37.664;2023-08-31T10:45:45;99313.00;;;30.91;37.88
61900;BME280;47853;55.890;37.664;2023-08-31T10:48:10;99323.41;;;30.47;37.32
61900;BME280;47853;55.890;37.664;2023-08-31T10:50:42;99316.63;;;29.59;40.48
61900;BME280;47853;55.890;37.664;2023-08-31T10:53:09;99316.16;;;30.70;37.14
61900;BME280;47853;55.890;37.664;2023-08-31T10:55:34;99318.44;;;29.83;39.26
61900;BME280;47853;55.890;37.664;2023-08-31T10:57:59;99324.50;;;29.46;40.55
61900;BME280;47853;55.890;37.664;2023-08-31T11:00:50;99313.38;;;29.76;41.17
61900;BME280;47853;55.890;37.664;2023-08-31T11:03:16;99324.44;;;28.84;42.39
61900;BME280;47853;55.890;37.664;2023-08-31T11:05:51;99311.41;;;29.95;39.64
61900;BME280;47853;55.890;37.664;2023-08-31T11:08:23;99310.31;;;31.42;35.61
61900;BME280;47853;55.890;37.664;2023-08-31T11:10:49;99310.81;;;30.32;37.99
61900;BME280;47853;55.890;37.664;2023-08-31T11:13:23;99300.38;;;30.34;38.53
61900;BME280;47853;55.890;37.664;2023-08-31T11:15:48;99309.13;;;31.20;37.15
61900;BME280;47853;55.890;37.664;2023-08-31T11:18:14;99308.56;;;30.95;36.91
61900;BME280;47853;55.890;37.664;2023-08-31T11:20:39;99316.31;;;30.46;36.71
61900;BME280;47853;55.890;37.664;2023-08-31T11:23:05;99305.25;;;29.51;39.28
61900;BME280;47853;55.890;37.664;2023-08-31T11:25:31;99310.63;;;29.37;40.98
61900;BME280;47853;55.890;37.664;2023-08-31T11:27:58;99290.47;;;28.90;42.78
61900;BME280;47853;55.890;37.664;2023-08-31T11:30:25;99310.50;;;30.19;39.87
61900;BME280;47853;55.890;37.664;2023-08-31T11:32:52;99294.69;;;29.45;41.02
61900;BME280;47853;55.890;37.664;2023-08-31T11:35:19;99293.59;;;30.59;38.73
61900;BME280;47853;55.890;37.664;2023-08-31T11:37:49;99297.22;;;30.27;38.00
61900;BME280;47853;55.890;37.664;2023-08-31T11:40:15;99293.06;;;29.63;39.20
61900;BME280;47853;55.890;37.664;2023-08-31T11:42:40;99281.72;;;30.92;36.61
61900;BME280;47853;55.890;37.664;2023-08-31T11:45:06;99283.59;;;30.07;38.04
61900;BME280;47853;55.890;37.664;2023-08-31T11:47:33;99288.91;;;29.65;39.55
61900;BME280;47853;55.890;37.664;2023-08-31T11:49:59;99281.25;;;30.76;37.64
61900;BME280;47853;55.890;37.664;2023-08-31T11:52:25;99281.81;;;31.29;35.91
61900;BME280;47853;55.890;37.664;2023-08-31T11:54:54;99282.31;;;31.31;35.91
61900;BME280;47853;55.890;37.664;2023-08-31T11:57:25;99280.44;;;30.75;36.99
61900;BME280;47853;55.890;37.664;2023-08-31T11:59:51;99282.50;;;30.22;37.66
61900;BME280;47853;55.890;37.664;2023-08-31T12:02:19;99284.09;;;30.09;38.26
61900;BME280;47853;55.890;37.664;2023-08-31T12:04:45;99271.47;;;31.48;35.95
61900;BME280;47853;55.890;37.664;2023-08-31T12:07:15;99259.59;;;31.02;36.14
61900;BME280;47853;55.890;37.664;2023-08-31T12:09:41;99262.03;;;30.48;37.09
61900;BME280;47853;55.890;37.664;2023-08-31T12:12:07;99259.41;;;30.71;37.24
61900;BME280;47853;55.890;37.664;2023-08-31T12:14:33;99244.94;;;31.21;36.36
61900;BME280;47853;55.890;37.664;2023-08-31T12:17:03;99242.59;;;31.28;36.07
61900;BME280;47853;55.890;37.664;2023-08-31T12:19:33;99248.53;;;30.23;37.50
61900;BME280;47853;55.890;37.664;2023-08-31T12:22:01;99243.03;;;29.76;39.90
61900;BME280;47853;55.890;37.664;2023-08-31T12:24:26;99247.16;;;29.93;38.29
61900;BME280;47853;55.890;37.664;2023-08-31T12:26:52;99245.59;;;30.48;37.99
61900;BME280;47853;55.890;37.664;2023-08-31T12:29:17;99246.50;;;30.57;37.69
61900;BME280;47853;55.890;37.664;2023-08-31T12:31:44;99247.56;;;31.12;36.45
61900;BME280;47853;55.890;37.664;2023-08-31T12:47:14;99239.13;;;29.96;39.75
61900;BME280;47853;55.890;37.664;2023-08-31T12:49:39;99250.81;;;31.14;36.54
61900;BME280;47853;55.890;37.664;2023-08-31T12:52:05;99251.41;;;30.74;36.89
61900;BME280;47853;55.890;37.664;2023-08-31T12:54:30;99238.84;;;31.24;37.25
61900;BME280;47853;55.890;37.664;2023-08-31T12:56:56;99239.25;;;31.77;35.99
61900;BME280;47853;55.890;37.664;2023-08-31T12:59:21;99232.34;;;31.06;36.01
61900;BME280;47853;55.890;37.664;2023-08-31T13:01:46;99228.38;;;31.12;37.00
61900;BME280;47853;55.890;37.664;2023-08-31T13:04:12;99236.47;;;30.66;37.85